createdAt,value
2022-08-19T00:01:29.036Z,4.10
2022-08-19T00:04:39.191Z,4.50
2022-08-19T00:07:49.474Z,4.20
2022-08-19T00:10:58.225Z,3.53
2022-08-19T00:14:08.303Z,3.33
2022-08-19T00:17:18.315Z,2.83
2022-08-19T00:20:26.932Z,3.27
2022-08-19T00:23:37.243Z,2.80
2022-08-19T00:26:47.180Z,2.47
2022-08-19T00:29:55.807Z,2.73
2022-08-19T00:33:10.053Z,2.23
2022-08-19T00:36:19.560Z,3.40
2022-08-19T00:39:28.092Z,2.70
2022-08-19T00:42:40.555Z,3.10
2022-08-19T00:46:15.734Z,2.60
2022-08-19T00:49:36.416Z,2.37
2022-08-19T00:52:51.160Z,2.73
2022-08-19T00:56:05.223Z,2.53
2022-08-19T00:59:14.501Z,2.47
2022-08-19T01:02:45.537Z,6.37
2022-08-19T01:05:57.720Z,2.17
2022-08-19T01:09:07.645Z,1.90
2022-08-19T01:12:17.081Z,2.20
2022-08-19T01:15:32.071Z,2.07
2022-08-19T01:18:43.932Z,2.37
2022-08-19T01:22:14.199Z,2.30
2022-08-19T01:25:31.326Z,5.67
2022-08-19T01:28:41.021Z,3.30
2022-08-19T01:31:54.477Z,2.40
2022-08-19T01:35:03.723Z,2.47
2022-08-19T01:38:25.834Z,2.63
2022-08-19T01:41:37.053Z,2.13
2022-08-19T01:44:45.251Z,3.37
2022-08-19T01:48:02.152Z,3.20
2022-08-19T01:51:12.780Z,3.20
2022-08-19T01:54:27.801Z,2.37
2022-08-19T01:57:38.622Z,2.33
2022-08-19T02:00:47.386Z,2.70
2022-08-19T02:03:56.885Z,2.20
2022-08-19T02:07:07.082Z,2.67
2022-08-19T02:10:21.988Z,2.53
2022-08-19T02:13:33.594Z,2.50
2022-08-19T02:16:41.850Z,2.40
2022-08-19T02:19:50.176Z,2.50
2022-08-19T02:22:58.428Z,2.50
2022-08-19T02:26:07.410Z,3.30
2022-08-19T02:29:17.956Z,2.27
2022-08-19T02:32:26.417Z,2.17
2022-08-19T02:35:34.736Z,2.20
2022-08-19T02:38:47.683Z,2.27
2022-08-19T02:42:03.400Z,2.83
2022-08-19T02:45:14.189Z,2.13
2022-08-19T02:48:25.498Z,2.97
2022-08-19T02:51:37.681Z,2.30
2022-08-19T02:54:46.931Z,2.50
2022-08-19T02:57:55.629Z,2.20
2022-08-19T03:01:09.872Z,2.37
2022-08-19T03:04:28.117Z,2.97
2022-08-19T03:07:37.757Z,3.07
2022-08-19T03:10:49.580Z,3.53
2022-08-19T03:13:59.458Z,2.60
2022-08-19T03:17:09.909Z,2.83
2022-08-19T03:20:18.595Z,3.37
2022-08-19T03:23:27.122Z,4.27
2022-08-19T03:26:36.044Z,2.90
2022-08-19T03:29:44.858Z,3.07
2022-08-19T03:32:57.328Z,2.80
2022-08-19T03:36:10.817Z,2.80
2022-08-19T03:39:19.128Z,3.07
2022-08-19T03:42:38.297Z,3.90
2022-08-19T03:46:05.138Z,2.80
2022-08-19T03:49:14.976Z,3.50
2022-08-19T03:52:23.418Z,4.23
2022-08-19T03:55:31.674Z,2.97
2022-08-19T03:58:40.759Z,3.50
2022-08-19T04:01:50.724Z,3.60
2022-08-19T04:05:00.303Z,3.03
2022-08-19T04:08:13.265Z,2.57
2022-08-19T04:11:43.221Z,2.77
2022-08-19T04:14:52.386Z,2.67
2022-08-19T04:18:00.622Z,2.10
2022-08-19T04:21:17.306Z,2.57
2022-08-19T04:24:25.814Z,2.37
2022-08-19T04:27:35.029Z,2.80
2022-08-19T04:30:46.276Z,2.50
2022-08-19T04:33:56.179Z,2.20
2022-08-19T04:37:13.708Z,2.80
2022-08-19T04:40:39.485Z,2.07
2022-08-19T04:43:49.818Z,2.03
2022-08-19T04:46:58.468Z,2.07
2022-08-19T04:50:12.802Z,2.10
2022-08-19T04:53:22.292Z,2.07
2022-08-19T04:56:31.229Z,2.20
2022-08-19T04:59:41.154Z,2.50
2022-08-19T05:02:50.249Z,2.13
2022-08-19T05:05:59.348Z,2.47
2022-08-19T05:09:08.856Z,1.97
2022-08-19T05:12:17.492Z,2.83
2022-08-19T05:15:25.729Z,1.87
2022-08-19T05:18:51.929Z,1.50
2022-08-19T05:22:19.295Z,3.13
2022-08-19T05:25:28.979Z,2.67
2022-08-19T05:28:37.193Z,1.87
2022-08-19T05:31:46.581Z,2.00
2022-08-19T05:34:55.527Z,2.10
2022-08-19T05:38:03.772Z,2.10
2022-08-19T05:41:16.191Z,2.43
2022-08-19T05:44:25.004Z,1.97
2022-08-19T05:47:33.176Z,3.10
2022-08-19T05:50:43.375Z,2.00
2022-08-19T05:53:52.944Z,2.03
2022-08-19T05:57:03.920Z,2.07
2022-08-19T06:00:14.882Z,2.47
2022-08-19T06:03:26.157Z,1.93
2022-08-19T06:06:35.674Z,2.83
2022-08-19T06:09:58.973Z,2.13
2022-08-19T06:13:12.588Z,2.77
2022-08-19T06:16:23.369Z,2.50
2022-08-19T06:19:33.342Z,2.37
2022-08-19T06:22:44.271Z,2.40
2022-08-19T06:25:52.586Z,2.50
2022-08-19T06:29:02.332Z,2.60
2022-08-19T06:32:10.691Z,3.20
2022-08-19T06:35:22.402Z,5.07
2022-08-19T06:38:30.792Z,7.93
2022-08-19T06:41:47.134Z,4.57
2022-08-19T06:45:04.089Z,2.93
2022-08-19T06:48:19.573Z,2.83
2022-08-19T06:54:55.570Z,2.50
2022-08-19T06:58:05.285Z,2.80
2022-08-19T07:01:15.373Z,2.57
2022-08-19T07:04:27.895Z,2.63
2022-08-19T07:07:36.605Z,2.97
2022-08-19T07:10:46.712Z,3.13
2022-08-19T07:13:55.753Z,3.40
2022-08-19T07:17:17.834Z,3.93
2022-08-19T07:20:28.702Z,3.97
2022-08-19T07:26:51.934Z,5.30
2022-08-19T07:30:00.767Z,4.57
2022-08-19T07:33:10.595Z,5.90
2022-08-19T07:36:23.178Z,6.00
2022-08-19T07:39:38.447Z,6.40
2022-08-19T07:42:46.714Z,8.37
2022-08-19T07:45:57.449Z,6.47
2022-08-19T07:49:19.294Z,7.40
2022-08-19T07:52:28.469Z,7.33
2022-08-19T07:55:40.460Z,7.83
2022-08-19T08:02:03.978Z,8.07
2022-08-19T08:05:35.586Z,8.53
2022-08-19T08:09:02.722Z,8.33
2022-08-19T08:12:34.131Z,9.27
2022-08-19T08:15:46.645Z,9.70
2022-08-19T08:18:56.624Z,8.20
2022-08-19T08:22:32.036Z,8.57
2022-08-19T08:25:43.118Z,9.20
2022-08-19T08:28:54.485Z,9.57
2022-08-19T08:32:14.934Z,9.80
2022-08-19T08:35:27.789Z,8.77
2022-08-19T08:38:40.495Z,8.07
2022-08-19T08:42:00.992Z,10.63
2022-08-19T08:45:20.637Z,8.87
2022-08-19T08:48:42.613Z,8.13
2022-08-19T08:52:00.005Z,7.57
2022-08-19T08:55:17.418Z,8.43
2022-08-19T08:58:43.078Z,7.97
2022-08-19T09:01:51.367Z,6.63
2022-08-19T09:05:00.232Z,6.13
2022-08-19T09:08:25.047Z,7.17
2022-08-19T09:11:52.520Z,6.70
2022-08-19T09:15:09.202Z,5.50
2022-08-19T09:18:19.663Z,5.50
2022-08-19T09:21:33.017Z,5.97
2022-08-19T09:24:42.583Z,6.43
2022-08-19T09:28:03.077Z,5.53
2022-08-19T09:31:17.417Z,6.17
2022-08-19T09:34:26.819Z,6.57
2022-08-19T09:37:36.325Z,6.60
2022-08-19T09:40:45.278Z,5.73
2022-08-19T09:43:58.493Z,5.93
2022-08-19T09:47:09.554Z,7.90
2022-08-19T09:50:19.180Z,5.90
2022-08-19T09:53:28.666Z,9.23
2022-08-19T09:56:37.249Z,5.37
2022-08-19T09:59:47.402Z,6.10
2022-08-19T10:02:56.389Z,5.93
2022-08-19T10:06:15.223Z,6.03
2022-08-19T10:09:34.478Z,5.83
2022-08-19T10:12:49.428Z,5.13
2022-08-19T10:16:07.720Z,5.93
2022-08-19T10:19:16.170Z,5.43
2022-08-19T10:22:36.759Z,6.93
2022-08-19T10:25:45.615Z,6.23
2022-08-19T10:28:58.433Z,5.80
2022-08-19T10:32:11.047Z,6.10
2022-08-19T10:35:21.737Z,6.67
2022-08-19T10:38:32.440Z,5.73
2022-08-19T10:41:44.601Z,7.43
2022-08-19T10:44:53.949Z,7.03
2022-08-19T10:48:04.094Z,6.00
2022-08-19T10:51:31.237Z,6.30
2022-08-19T10:54:56.885Z,6.87
2022-08-19T10:58:14.630Z,6.10
2022-08-19T11:01:23.439Z,5.80
2022-08-19T11:04:33.504Z,5.27
2022-08-19T11:07:43.080Z,5.70
2022-08-19T11:10:54.483Z,5.30
2022-08-19T11:14:02.829Z,4.67
2022-08-19T11:17:12.201Z,4.03
2022-08-19T11:20:21.834Z,4.20
2022-08-19T11:23:30.193Z,4.23
2022-08-19T11:26:42.479Z,4.87
2022-08-19T11:29:55.723Z,4.60
2022-08-19T11:33:05.999Z,4.53
2022-08-19T11:36:16.284Z,4.00
2022-08-19T11:39:25.410Z,3.83
2022-08-19T11:42:59.954Z,3.53
2022-08-19T11:46:10.805Z,3.30
2022-08-19T11:49:22.114Z,3.40
2022-08-19T11:52:31.706Z,3.20
2022-08-19T11:55:43.375Z,2.40
2022-08-19T11:58:54.203Z,2.57
2022-08-19T12:02:02.359Z,1.87
2022-08-19T12:05:12.885Z,1.80
2022-08-19T12:08:23.205Z,1.40
2022-08-19T12:11:34.563Z,1.63
2022-08-19T12:14:43.262Z,1.50
2022-08-19T12:17:51.456Z,1.73
2022-08-19T12:21:02.422Z,1.50
2022-08-19T12:24:12.252Z,1.57
2022-08-19T12:27:32.325Z,1.40
2022-08-19T12:30:51.124Z,1.40
2022-08-19T12:33:59.925Z,1.50
2022-08-19T12:37:09.430Z,4.50
2022-08-19T12:40:20.732Z,5.33
2022-08-19T12:43:31.330Z,4.93
2022-08-19T12:46:40.245Z,5.00
2022-08-19T12:49:55.502Z,6.00
2022-08-19T12:53:05.090Z,3.13
2022-08-19T12:56:17.497Z,2.93
2022-08-19T12:59:32.392Z,2.87
2022-08-19T13:02:51.147Z,3.60
2022-08-19T13:06:04.012Z,1.37
2022-08-19T13:09:12.881Z,1.27
2022-08-19T13:12:24.945Z,1.43
2022-08-19T13:15:37.187Z,1.73
2022-08-19T13:18:51.999Z,1.40
2022-08-19T13:22:00.729Z,1.00
2022-08-19T13:25:11.039Z,1.13
2022-08-19T13:28:20.814Z,1.10
2022-08-19T13:31:59.305Z,0.70
2022-08-19T13:35:08.346Z,0.87
2022-08-19T13:38:23.086Z,0.70
2022-08-19T13:41:31.924Z,0.50
2022-08-19T13:44:41.701Z,0.43
2022-08-19T13:47:53.685Z,0.97
2022-08-19T13:51:12.133Z,0.97
2022-08-19T13:54:23.596Z,0.60
2022-08-19T13:57:31.866Z,1.90
2022-08-19T14:00:47.274Z,0.60
2022-08-19T14:03:56.025Z,0.40
2022-08-19T14:07:07.233Z,0.43
2022-08-19T14:10:17.630Z,1.23
2022-08-19T14:13:26.624Z,0.70
2022-08-19T14:16:36.386Z,0.40
2022-08-19T14:19:48.166Z,0.50
2022-08-19T14:22:57.460Z,0.60
2022-08-19T14:26:07.617Z,0.70
2022-08-19T14:29:15.960Z,0.70
2022-08-19T14:32:25.781Z,0.70
2022-08-19T14:35:36.292Z,0.70
2022-08-19T14:38:45.342Z,0.80
2022-08-19T14:41:55.138Z,0.80
2022-08-19T14:45:03.484Z,1.70
2022-08-19T14:48:19.401Z,0.63
2022-08-19T14:51:29.287Z,1.07
2022-08-19T14:54:40.522Z,0.80
2022-08-19T14:57:48.999Z,0.83
2022-08-19T15:00:57.377Z,0.87
2022-08-19T15:04:07.475Z,0.83
2022-08-19T15:07:15.933Z,0.67
2022-08-19T15:10:25.544Z,0.93
2022-08-19T15:13:33.943Z,0.70
2022-08-19T15:16:43.645Z,0.63
2022-08-19T15:19:54.446Z,0.50
2022-08-19T15:23:03.106Z,0.60
2022-08-19T15:26:14.264Z,0.60
2022-08-19T15:29:26.549Z,0.40
2022-08-19T15:32:35.803Z,0.50
2022-08-19T15:35:46.480Z,0.40
2022-08-19T15:38:55.586Z,0.57
2022-08-19T15:42:04.140Z,1.27
2022-08-19T15:45:16.969Z,0.73
2022-08-19T15:48:26.555Z,1.10
2022-08-19T15:51:39.333Z,1.73
2022-08-19T15:54:47.774Z,1.80
2022-08-19T15:58:27.714Z,0.70
2022-08-19T16:01:55.386Z,0.50
2022-08-19T16:05:25.455Z,0.97
2022-08-19T16:08:48.812Z,0.77
2022-08-19T16:12:02.402Z,0.80
2022-08-19T16:15:15.087Z,0.53
2022-08-19T16:18:26.873Z,0.70
2022-08-19T16:21:39.622Z,0.70
2022-08-19T16:24:51.666Z,0.73
2022-08-19T16:28:08.023Z,0.70
2022-08-19T16:31:17.437Z,0.80
2022-08-19T16:34:27.111Z,0.60
2022-08-19T16:37:35.839Z,1.07
2022-08-19T16:40:49.207Z,1.03
2022-08-19T16:43:57.748Z,1.27
2022-08-19T16:47:06.814Z,1.03
2022-08-19T16:50:21.902Z,0.80
2022-08-19T16:53:38.511Z,1.80
2022-08-19T16:56:49.062Z,0.80
2022-08-19T16:59:59.810Z,0.70
2022-08-19T17:03:14.742Z,0.63
2022-08-19T17:06:27.563Z,0.60
2022-08-19T17:09:35.846Z,0.50
2022-08-19T17:12:47.740Z,0.60
2022-08-19T17:15:57.095Z,0.33
2022-08-19T17:19:08.680Z,0.40
2022-08-19T17:22:20.008Z,1.20
2022-08-19T17:25:31.489Z,0.40
2022-08-19T17:28:41.665Z,0.50
2022-08-19T17:31:51.632Z,0.90
2022-08-19T17:35:00.649Z,0.53
2022-08-19T17:38:11.183Z,0.60
2022-08-19T17:41:19.911Z,0.40
2022-08-19T17:44:33.205Z,0.83
2022-08-19T17:47:42.639Z,0.40
2022-08-19T17:50:53.910Z,0.60
2022-08-19T17:54:05.962Z,0.60
2022-08-19T17:57:16.312Z,0.40
2022-08-19T18:00:31.823Z,0.53
2022-08-19T18:03:41.837Z,0.60
2022-08-19T18:06:53.641Z,2.33
2022-08-19T18:10:02.842Z,0.80
2022-08-19T18:13:17.029Z,0.47
2022-08-19T18:16:29.537Z,1.93
2022-08-19T18:19:41.093Z,0.50
2022-08-19T18:22:52.715Z,0.50
2022-08-19T18:26:01.300Z,0.60
2022-08-19T18:29:10.662Z,0.57
2022-08-19T18:32:23.838Z,0.60
2022-08-19T18:35:33.800Z,1.33
2022-08-19T18:39:06.338Z,0.70
2022-08-19T18:42:36.859Z,0.60
2022-08-19T18:46:07.267Z,0.63
2022-08-19T18:49:23.604Z,0.97
2022-08-19T18:52:33.530Z,1.00
2022-08-19T18:55:42.329Z,0.60
2022-08-19T18:58:52.899Z,0.70
2022-08-19T19:02:02.863Z,0.77
2022-08-19T19:05:15.227Z,1.80
2022-08-19T19:08:26.791Z,0.90
2022-08-19T19:11:40.295Z,1.00
2022-08-19T19:14:52.002Z,1.17
2022-08-19T19:18:00.930Z,1.47
2022-08-19T19:21:15.572Z,2.10
2022-08-19T19:24:37.725Z,1.60
2022-08-19T19:27:51.397Z,1.37
2022-08-19T19:31:01.903Z,2.10
2022-08-19T19:34:29.765Z,4.33
2022-08-19T19:37:53.948Z,4.20
2022-08-19T19:41:02.737Z,5.50
2022-08-19T19:44:29.988Z,5.90
2022-08-19T19:47:39.687Z,6.07
2022-08-19T19:50:56.067Z,6.53
2022-08-19T19:54:06.773Z,7.13
2022-08-19T19:57:16.222Z,6.53
2022-08-19T20:00:26.246Z,6.37
2022-08-19T20:03:35.952Z,6.23
2022-08-19T20:06:45.818Z,6.80
2022-08-19T20:10:00.075Z,6.90
2022-08-19T20:13:10.731Z,6.23
2022-08-19T20:16:19.585Z,6.20
2022-08-19T20:19:36.422Z,7.17
2022-08-19T20:22:48.703Z,5.93
2022-08-19T20:25:58.908Z,5.70
2022-08-19T20:29:13.444Z,6.20
2022-08-19T20:32:37.728Z,6.40
2022-08-19T20:35:49.271Z,5.73
2022-08-19T20:38:58.195Z,5.30
2022-08-19T20:42:09.309Z,5.80
2022-08-19T20:45:33.675Z,6.27
2022-08-19T20:48:43.050Z,5.83
2022-08-19T20:51:54.736Z,6.53
2022-08-19T20:55:03.871Z,5.30
2022-08-19T20:58:17.795Z,5.90
2022-08-19T21:01:26.694Z,5.53
2022-08-19T21:04:35.196Z,5.73
2022-08-19T21:07:51.900Z,5.20
2022-08-19T21:11:03.677Z,5.53
2022-08-19T21:14:15.725Z,5.70
2022-08-19T21:17:25.816Z,5.57
2022-08-19T21:20:34.423Z,5.50
2022-08-19T21:23:44.186Z,5.40
2022-08-19T21:26:52.755Z,5.40
2022-08-19T21:30:04.655Z,5.47
2022-08-19T21:33:13.661Z,5.57
2022-08-19T21:36:22.957Z,5.87
2022-08-19T21:39:32.332Z,5.97
2022-08-19T21:42:41.170Z,5.97
2022-08-19T21:45:51.992Z,4.67
2022-08-19T21:49:00.800Z,5.77
2022-08-19T21:52:13.990Z,5.50
2022-08-19T21:55:52.818Z,5.37
2022-08-19T21:59:02.104Z,6.43
2022-08-19T22:02:21.676Z,6.37
2022-08-19T22:05:31.388Z,6.57
2022-08-19T22:08:41.403Z,6.43
2022-08-19T22:11:50.059Z,6.67
2022-08-19T22:15:01.898Z,6.80
2022-08-19T22:18:13.840Z,6.23
2022-08-19T22:21:40.374Z,6.07
2022-08-19T22:24:49.867Z,7.23
2022-08-19T22:28:00.620Z,7.37
2022-08-19T22:31:12.891Z,7.80
2022-08-19T22:34:23.404Z,8.33
2022-08-19T22:37:32.852Z,7.40
2022-08-19T22:40:48.619Z,8.83
2022-08-19T22:43:58.241Z,9.47
2022-08-19T22:47:07.943Z,9.67
2022-08-19T22:50:18.949Z,9.67
2022-08-19T22:53:27.530Z,10.30
2022-08-19T22:56:36.543Z,9.70
2022-08-19T22:59:45.355Z,11.07
2022-08-19T23:02:55.172Z,9.97
2022-08-19T23:06:05.382Z,10.60
2022-08-19T23:09:16.975Z,10.03
2022-08-19T23:12:33.559Z,9.50
2022-08-19T23:15:42.316Z,9.03
2022-08-19T23:18:51.011Z,8.23
2022-08-19T23:22:08.396Z,9.77
2022-08-19T23:25:23.692Z,8.53
2022-08-19T23:28:50.338Z,7.60
2022-08-19T23:31:59.187Z,7.33
2022-08-19T23:35:09.283Z,7.40
2022-08-19T23:38:22.754Z,8.43
2022-08-19T23:41:31.383Z,7.57
2022-08-19T23:44:52.377Z,6.93
2022-08-19T23:48:03.373Z,7.07
2022-08-19T23:51:16.499Z,6.97
2022-08-19T23:54:43.191Z,7.27
2022-08-19T23:57:53.116Z,7.10
